Latest Weather Observations for Double Island Point

IDQ60901

Issued at 7:31 pm EST Tuesday 28 June 2016 (issued every 10 minutes, with the page automatically refreshed every 10 minutes)

About weather observations | Map of Brisbane area stations | Latest observations for Brisbane area | Other Formats
Station Details ID: 040068 Name: DOUBLE ISLAND POINT LIGHTHOUSE Lat: -25.93 Lon: 153.19 Height: 95.64 m
Data from the previous 72 hours. | See also: Recent months at Double Island Point
Date/Time
EST
Temp
°C
App
Temp
°C
Dew
Point
°C
Rel
Hum
%
Delta-T
°C
Wind Press
QNH
hPa
Press
MSL
hPa
Rain since
9am
mm
Dir  Spd
km/h
Gust
km/h
Spd
kts
Gust
kts
28/07:30pm 14.1 7.0 3.8 50 4.7 SW 30 39 16 21 1022.9 1022.8 0.0
28/07:00pm 14.1 6.7 3.8 50 4.7 SW 32 37 17 20 1022.6 1022.5 0.0
28/06:30pm 14.1 7.0 3.8 50 4.7 SW 30 37 16 20 1022.3 1022.1 0.0
28/06:00pm 14.2 7.3 4.5 52 4.5 SW 30 35 16 19 1021.9 1021.7 0.0
28/05:30pm 14.4 9.0 4.4 51 4.6 SW 22 30 12 16 1021.5 1021.3 0.0
28/05:00pm 15.1 9.3 4.5 49 4.9 SW 24 32 13 17 1020.9 1020.7 0.0
28/04:30pm 15.6 10.5 4.3 47 5.3 SW 20 26 11 14 1020.6 1020.4 0.0
28/04:00pm 16.3 11.5 4.7 46 5.5 SW 19 26 10 14 1020.3 1020.1 0.0
28/03:30pm 16.6 12.1 4.0 43 5.9 SW 17 30 9 16 1020.0 1019.8 0.0
28/03:00pm 16.7 11.3 4.4 44 5.8 SW 22 30 12 16 1019.9 1019.7 0.0
28/02:30pm 16.7 10.8 3.7 42 6.1 SSW 24 33 13 18 1019.6 1019.4 0.0
28/02:00pm 16.2 9.9 3.9 44 5.7 SSW 26 37 14 20 1019.6 1019.4 0.0
28/01:30pm 17.0 12.7 5.3 46 5.6 SSW 17 24 9 13 1019.6 1019.4 0.0
28/01:00pm 16.0 11.0 3.8 44 5.6 SSW 19 26 10 14 1019.7 1019.5 0.0
28/12:30pm 14.8 9.0 2.4 43 5.5 SSW 22 32 12 17 1019.9 1019.7 0.0
28/12:00pm 15.0 9.6 2.5 43 5.6 SW 20 30 11 16 1020.2 1020.0 0.0
28/11:30am 14.2 8.1 2.8 46 5.1 SW 24 41 13 22 1020.5 1020.3 0.0
28/11:00am 13.8 8.7 3.3 49 4.7 SW 19 28 10 15 1020.9 1020.7 0.0
28/10:30am 12.5 6.0 2.4 50 4.4 WSW 26 33 14 18 1020.9 1020.7 0.0
28/10:00am 11.4 4.9 2.9 56 3.7 SW 26 41 14 22 1021.1 1020.9 0.0
28/09:30am 10.4 5.0 2.7 59 3.3 SW 20 30 11 16 1021.2 1021.0 0.0
28/09:00am 9.7 4.9 2.6 61 3.0 SW 17 26 9 14 1021.2 1021.0 0.0
28/08:30am 8.8 1.8 2.2 63 2.8 WSW 28 35 15 19 1020.7 1020.5 0.0
28/08:00am 8.3 3.4 1.7 63 2.7 SW 17 26 9 14 1021.1 1020.9 0.0
28/07:30am 7.9 2.4 1.7 65 2.6 SW 20 35 11 19 1020.9 1020.7 0.0
28/07:00am 7.9 2.6 2.0 66 2.4 WSW 19 30 10 16 1020.6 1020.4 0.0
28/06:30am 7.7 2.4 1.8 66 2.4 WSW 19 26 10 14 1020.6 1020.4 0.0
28/06:00am 8.0 2.5 2.0 66 2.5 WSW 20 44 11 24 1020.0 1019.8 0.0
28/05:30am 7.7 2.8 2.2 68 2.3 SW 17 30 9 16 1019.8 1019.6 0.0
28/05:00am 8.1 2.8 3.0 70 2.2 WSW 20 28 11 15 1019.3 1019.1 0.0
28/04:30am 8.1 3.0 3.0 70 2.2 SW 19 26 10 14 1019.1 1018.9 0.0
28/04:00am 8.5 2.8 2.9 68 2.4 SW 22 32 12 17 1019.2 1019.0 0.0
28/03:30am 8.9 2.5 3.1 67 2.5 SW 26 33 14 18 1019.0 1018.8 0.0
28/03:00am 9.3 3.4 3.9 69 2.4 SW 24 32 13 17 1018.9 1018.7 0.0
28/02:30am 9.5 4.0 3.9 68 2.5 SW 22 30 12 16 1018.9 1018.7 0.0
28/02:00am 9.9 4.4 3.9 66 2.6 WSW 22 32 12 17 1019.0 1018.8 0.0
28/01:30am 10.2 3.9 3.7 64 2.9 SW 26 35 14 19 1018.9 1018.7 0.0
28/01:00am 10.1 4.5 3.6 64 2.8 SW 22 32 12 17 1019.1 1018.9 0.0
28/12:30am 10.5 4.5 3.5 62 3.1 SW 24 32 13 17 1018.8 1018.6 0.0
28/12:00am 10.7 4.7 3.5 61 3.2 WSW 24 30 13 16 1018.7 1018.5 0.0
 
Date/Time
EST
Temp
°C
App
Temp
°C
Dew
Point
°C
Rel
Hum
%
Delta-T
°C
Wind Press
QNH
hPa
Press
MSL
hPa
Rain since
9am
mm
Dir  Spd
km/h
Gust
km/h
Spd
kts
Gust
kts
27/11:30pm 10.8 5.2 3.4 60 3.3 WSW 22 37 12 20 1018.8 1018.6 0.0
27/11:00pm 10.7 5.5 3.5 61 3.2 SW 20 32 11 17 1018.9 1018.7 0.0
27/10:30pm 11.0 5.5 4.0 62 3.1 SSW 22 26 12 14 1018.9 1018.7 0.0
27/10:00pm 11.6 5.4 4.3 61 3.3 SW 26 41 14 22 1018.8 1018.6 0.0
27/09:30pm 12.0 5.5 4.5 60 3.4 SW 28 41 15 22 1018.2 1018.0 0.0
27/09:00pm 12.5 6.4 4.7 59 3.6 WSW 26 35 14 19 1018.2 1018.0 0.0
27/08:30pm 13.0 6.5 4.7 57 3.8 WSW 28 43 15 23 1017.9 1017.7 0.0
27/08:01pm 13.4 7.0 5.3 58 3.8 WSW 28 46 15 25 1018.0 1017.8 0.0
27/08:00pm 13.5 6.8 5.4 58 3.8 WSW 30 46 16 25 1017.9 1017.7 0.0
27/07:53pm 13.6 7.3 5.5 58 3.8 WSW 28 46 15 25 1017.7 1017.5 0.0
27/07:30pm 13.8 8.9 6.9 63 3.4 SW 22 33 12 18 1017.7 1017.5 0.0
27/07:00pm 14.3 10.6 8.0 66 3.1 SW 17 24 9 13 1017.3 1017.1 0.0
27/06:30pm 15.0 11.0 9.1 68 3.0 W 20 28 11 15 1016.8 1016.6 0.0
27/06:00pm 15.1 12.3 9.9 71 2.7 W 15 20 8 11 1016.6 1016.4 0.0
27/05:30pm 15.5 12.0 10.3 71 2.7 W 19 32 10 17 1016.2 1016.0 0.0
27/05:00pm 15.8 13.2 10.6 71 2.8 W 15 22 8 12 1015.7 1015.5 0.0
27/04:30pm 16.3 13.8 11.2 72 2.8 W 15 22 8 12 1015.5 1015.3 0.0
27/04:00pm 16.3 13.0 11.0 71 2.8 WSW 19 30 10 16 1015.2 1015.0 0.0
27/03:30pm 16.8 14.0 11.5 71 2.9 W 17 22 9 12 1015.0 1014.8 0.0
27/03:00pm 16.6 12.8 11.3 71 2.9 WSW 22 33 12 18 1014.9 1014.7 0.0
27/02:30pm 16.9 13.2 12.6 76 2.4 WSW 24 32 13 17 1014.7 1014.5 0.0
27/02:00pm 17.6 13.9 12.7 73 2.7 WSW 24 43 13 23 1014.6 1014.4 0.0
27/01:30pm 18.2 14.2 13.1 72 2.9 WNW 26 35 14 19 1014.4 1014.2 0.0
27/01:00pm 18.5 15.3 13.1 71 3.1 WNW 22 32 12 17 1014.4 1014.2 0.0
27/12:30pm 18.3 15.0 12.7 70 3.1 WNW 22 28 12 15 1014.6 1014.4 0.0
27/12:00pm 17.9 14.6 12.8 72 2.9 WNW 22 32 12 17 1015.2 1015.0 0.0
27/11:30am 18.0 15.6 12.7 71 3.0 WNW 17 24 9 13 1015.5 1015.3 0.0
27/11:00am 17.3 15.1 12.0 71 2.9 WNW 15 26 8 14 1016.2 1016.0 0.0
27/10:30am 17.4 16.7 12.1 71 2.9 WNW 7 13 4 7 1016.5 1016.3 0.0
27/10:00am 17.2 15.8 12.3 73 2.7 W 11 19 6 10 1016.8 1016.6 0.0
27/09:30am 16.5 14.8 12.3 76 2.3 WSW 13 20 7 11 1017.1 1016.9 0.0
27/09:00am 16.9 15.0 13.0 78 2.2 WSW 15 20 8 11 1017.4 1017.2 0.0
27/08:30am 16.6 13.0 12.9 79 2.1 WNW 24 33 13 18 1017.1 1016.9 0.0
27/08:00am 16.9 13.3 13.0 78 2.2 WNW 24 30 13 16 1017.0 1016.8 0.0
27/07:30am 16.6 13.0 12.9 79 2.1 WNW 24 32 13 17 1016.8 1016.6 0.0
27/07:00am 16.7 13.4 12.8 78 2.2 NW 22 28 12 15 1016.2 1016.0 0.0
27/06:30am 16.5 13.2 12.7 78 2.1 NW 22 28 12 15 1015.9 1015.7 0.0
27/06:00am 16.4 12.7 12.8 79 2.0 NW 24 30 13 16 1015.8 1015.6 0.0
27/05:30am 16.3 13.3 12.5 78 2.1 NW 20 26 11 14 1015.8 1015.6 0.0
27/05:00am 16.8 12.5 11.9 73 2.7 NW 26 30 14 16 1015.5 1015.3 0.0
27/04:30am 17.1 13.5 12.0 72 2.8 NW 22 28 12 15 1015.2 1015.0 0.0
27/04:00am 17.3 13.4 12.0 71 2.9 NW 24 30 13 16 1015.4 1015.2 0.0
27/03:30am 17.2 14.1 12.1 72 2.8 NW 20 26 11 14 1015.4 1015.2 0.0
27/03:00am 17.3 14.4 12.4 73 2.7 NW 19 24 10 13 1015.3 1015.1 0.0
27/02:30am 17.5 15.1 12.8 74 2.6 NW 17 20 9 11 1015.8 1015.6 0.0
27/02:00am 18.0 15.6 12.5 70 3.1 NNW 17 24 9 13 1016.1 1015.9 0.0
27/01:30am 18.0 17.3 12.0 68 3.3 N 7 13 4 7 1016.1 1015.9 0.0
27/01:00am 17.9 16.8 11.9 68 3.3 N 9 17 5 9 1016.2 1016.0 0.0
27/12:30am 17.8 16.7 11.8 68 3.3 N 9 17 5 9 1016.4 1016.2 0.0
27/12:00am 17.6 16.4 11.6 68 3.3 N 9 20 5 11 1016.8 1016.6 0.0
 
Date/Time
EST
Temp
°C
App
Temp
°C
Dew
Point
°C
Rel
Hum
%
Delta-T
°C
Wind Press
QNH
hPa
Press
MSL
hPa
Rain since
9am
mm
Dir  Spd
km/h
Gust
km/h
Spd
kts
Gust
kts
26/11:30pm 17.4 14.2 11.2 67 3.4 N 19 30 10 16 1016.6 1016.4 0.0
26/11:00pm 17.5 15.8 11.1 66 3.5 N 11 20 6 11 1016.9 1016.7 0.0
26/10:30pm 17.5 16.5 11.1 66 3.5 NW 7 13 4 7 1017.3 1017.1 0.0
26/10:00pm 17.5 16.4 10.6 64 3.7 N 7 15 4 8 1017.6 1017.4 0.0
26/09:30pm 17.5 16.0 10.4 63 3.8 N 9 20 5 11 1018.1 1017.9 0.0
26/09:00pm 17.3 14.2 10.2 63 3.8 N 17 26 9 14 1018.4 1018.2 0.0
26/08:30pm 17.1 15.4 10.0 63 3.8 N 9 17 5 9 1018.4 1018.2 0.0
26/08:00pm 16.9 14.8 9.6 62 3.8 N 11 19 6 10 1018.6 1018.4 0.0
26/07:30pm 16.8 15.1 9.7 63 3.7 NNE 9 15 5 8 1018.5 1018.3 0.0
26/07:00pm 16.5 16.0 10.8 69 3.1 SSE 4 7 2 4 1018.5 1018.3 0.0
26/06:30pm 16.2 15.1 10.7 70 2.9 SSE 7 9 4 5 1018.4 1018.2 0.0
26/06:00pm 16.2 15.1 10.7 70 2.9 S 7 9 4 5 1017.8 1017.6 0.0
26/05:30pm 16.0 14.4 10.3 69 3.0 SSW 9 11 5 6 1017.5 1017.3 0.0
26/05:00pm 16.4 14.5 10.5 68 3.1 SSE 11 17 6 9 1017.1 1016.9 0.0
26/04:30pm 16.3 14.3 10.2 67 3.2 SSE 11 15 6 8 1016.9 1016.7 0.0
26/04:00pm 16.4 14.4 10.3 67 3.2 SSE 11 15 6 8 1017.1 1016.9 0.0
26/03:30pm 16.6 14.3 10.5 67 3.3 S 13 19 7 10 1016.9 1016.7 0.0
26/03:00pm 16.8 13.7 10.2 65 3.5 S 17 20 9 11 1017.2 1017.0 0.0
26/02:30pm 16.8 13.9 9.7 63 3.7 SSE 15 20 8 11 1017.2 1017.0 0.0
26/02:00pm 17.1 13.9 9.8 62 3.8 SSE 17 22 9 12 1017.5 1017.3 0.0
26/01:30pm 16.7 13.0 9.6 63 3.7 SSE 19 22 10 12 1017.9 1017.7 0.0
26/01:00pm 16.7 13.4 9.6 63 3.7 SSE 17 20 9 11 1018.6 1018.4 0.0
26/12:30pm 16.3 12.0 9.5 64 3.6 S 22 26 12 14 1019.2 1019.0 0.0
26/12:00pm 16.3 12.4 9.3 63 3.6 S 20 26 11 14 1019.5 1019.3 0.0
26/11:30am 16.0 11.7 9.2 64 3.5 S 22 28 12 15 1019.8 1019.6 0.0
26/11:00am 15.8 10.9 8.5 62 3.7 S 24 32 13 17 1020.2 1020.0 0.0
26/10:30am 16.2 11.9 9.2 63 3.6 SSE 22 30 12 16 1020.0 1019.8 0.0
26/10:00am 16.0 11.5 8.7 62 3.7 SSE 22 30 12 16 1020.5 1020.3 0.0
26/09:30am 15.9 10.5 8.2 60 3.9 SSE 26 32 14 17 1020.8 1020.6 0.0
26/09:00am 15.7 10.7 8.0 60 3.9 SSE 24 32 13 17 1020.8 1020.6 0.0
26/08:30am 15.1 10.9 8.1 63 3.5 S 20 24 11 13 1020.3 1020.1 0.0
26/08:00am 14.5 10.1 7.3 62 3.5 S 20 28 11 15 1020.4 1020.2 0.0
26/07:30am 13.7 8.8 6.8 63 3.4 S 22 28 12 15 1020.6 1020.4 0.0
26/07:00am 13.5 8.1 6.4 62 3.4 S 24 28 13 15 1020.1 1019.9 0.0
26/06:30am 13.3 7.4 5.9 61 3.5 S 26 30 14 16 1019.5 1019.3 0.0
26/06:00am 12.7 7.0 5.1 60 3.5 SSW 24 28 13 15 1019.2 1019.0 0.0
26/05:30am 12.5 6.9 5.2 61 3.4 S 24 28 13 15 1018.5 1018.3 0.0
26/05:00am 12.4 6.4 5.1 61 3.4 S 26 30 14 16 1018.5 1018.3 0.0
26/04:30am 12.6 7.2 4.6 58 3.7 SSW 22 30 12 16 1018.6 1018.4 0.0
26/04:00am 12.6 6.7 4.1 56 3.9 S 24 26 13 14 1018.1 1017.9 0.0
26/03:30am 12.4 6.4 3.6 55 3.9 S 24 28 13 15 1017.8 1017.6 0.0
26/03:00am 12.8 6.4 3.2 52 4.3 SSW 26 32 14 17 1018.7 1018.5 0.0
26/02:30am 12.6 5.6 1.9 48 4.6 S 28 30 15 16 1018.2 1018.0 0.0
26/02:00am 12.3 5.1 0.4 44 5.0 S 28 32 15 17 1018.0 1017.8 0.0
26/01:30am 12.3 5.4 0.4 44 5.0 S 26 30 14 16 1018.4 1018.2 0.0
26/01:00am 12.2 5.7 0.3 44 4.9 S 24 30 13 16 1018.6 1018.4 0.0
26/12:30am 12.4 5.6 0.5 44 5.0 SSW 26 30 14 16 1018.8 1018.6 0.0
26/12:00am 12.8 5.8 -0.4 40 5.4 SSW 26 32 14 17 1019.0 1018.8 0.0
 
Date/Time
EST
Temp
°C
App
Temp
°C
Dew
Point
°C
Rel
Hum
%
Delta-T
°C
Wind Press
QNH
hPa
Press
MSL
hPa
Rain since
9am
mm
Dir  Spd
km/h
Gust
km/h
Spd
kts
Gust
kts
25/11:30pm 12.8 5.5 -0.1 41 5.3 SSW 28 33 15 18 1019.0 1018.8 0.0
25/11:00pm 13.1 5.8 -0.2 40 5.5 SSW 28 33 15 18 1019.4 1019.2 0.0
25/10:30pm 13.5 6.1 -0.5 38 5.8 SSW 28 32 15 17 1019.5 1019.3 0.0
25/10:00pm 13.6 6.4 -1.9 34 6.2 SSW 26 32 14 17 1019.7 1019.5 0.0
25/09:30pm 13.9 6.5 -0.5 37 6.0 SSW 28 33 15 18 1019.6 1019.4 0.0
25/09:00pm 13.9 6.4 -1.3 35 6.2 SSW 28 32 15 17 1019.6 1019.4 0.0
25/08:30pm 13.5 6.9 -0.2 39 5.7 SSW 24 28 13 15 1019.5 1019.3 0.0
25/08:00pm 14.3 10.2 2.5 45 5.2 S 13 17 7 9 1019.4 1019.2 0.0

Latest Capital City Observations: Canberra | Sydney | Melbourne | Brisbane | Adelaide | Perth | Hobart | Darwin

Other Formats:

Comma delimited format used in spreadsheet applications
http://www.bom.gov.au/fwo/IDQ60901/IDQ60901.94584.axf

JavaScript Object Notation format (JSON) in row-major order
http://www.bom.gov.au/fwo/IDQ60901/IDQ60901.94584.json